createdAt,value
2023-04-12T00:00:18.085Z,5.76
2023-04-12T00:05:22.990Z,5.69
2023-04-12T00:10:26.272Z,5.61
2023-04-12T00:15:29.215Z,5.56
2023-04-12T00:20:32.588Z,5.51
2023-04-12T00:25:38.752Z,5.58
2023-04-12T00:30:42.013Z,5.58
2023-04-12T00:35:44.991Z,5.52
2023-04-12T00:40:48.493Z,5.42
2023-04-12T00:45:51.601Z,5.41
2023-04-12T00:50:57.969Z,5.34
2023-04-12T00:56:01.901Z,5.32
2023-04-12T01:01:05.823Z,5.24
2023-04-12T01:06:48.499Z,5.16
2023-04-12T01:12:28.520Z,5.12
2023-04-12T01:17:38.515Z,5.13
2023-04-12T01:23:14.966Z,5.09
2023-04-12T01:28:33.781Z,5.04
2023-04-12T01:33:39.812Z,5.03
2023-04-12T01:38:43.751Z,5.08
2023-04-12T01:43:48.070Z,5.11
2023-04-12T01:48:53.611Z,5.13
2023-04-12T01:54:13.269Z,5.15
2023-04-12T01:59:17.866Z,5.21
2023-04-12T02:04:22.297Z,5.23
2023-04-12T02:09:25.212Z,5.28
2023-04-12T02:14:28.645Z,5.27
2023-04-12T02:19:32.851Z,5.31
2023-04-12T02:24:35.954Z,5.23
2023-04-12T02:29:39.033Z,5.10
2023-04-12T02:34:42.369Z,4.98
2023-04-12T02:39:45.316Z,4.85
2023-04-12T02:44:48.752Z,4.75
2023-04-12T02:49:51.536Z,4.63
2023-04-12T02:54:55.081Z,4.52
2023-04-12T02:59:58.158Z,4.52
2023-04-12T03:05:03.584Z,4.56
2023-04-12T03:10:07.754Z,4.63
2023-04-12T03:15:11.245Z,4.64
2023-04-12T03:20:14.965Z,4.70
2023-04-12T03:25:18.851Z,4.76
2023-04-12T03:30:21.946Z,4.78
2023-04-12T03:35:25.024Z,4.79
2023-04-12T03:40:27.950Z,4.80
2023-04-12T03:45:31.108Z,4.79
2023-04-12T03:50:42.420Z,4.75
2023-04-12T03:55:45.392Z,4.72
2023-04-12T04:00:49.177Z,4.67
2023-04-12T04:05:52.302Z,4.60
2023-04-12T04:10:58.006Z,4.51
2023-04-12T04:16:05.847Z,4.53
2023-04-12T04:21:09.140Z,4.54
2023-04-12T04:26:12.601Z,4.56
2023-04-12T04:31:17.684Z,4.55
2023-04-12T04:36:20.952Z,4.62
2023-04-12T04:41:24.421Z,4.65
2023-04-12T04:46:30.631Z,4.67
2023-04-12T04:51:33.708Z,4.71
2023-04-12T04:56:36.694Z,4.79
2023-04-12T05:01:41.582Z,4.92
2023-04-12T05:06:46.554Z,5.12
2023-04-12T05:11:49.446Z,5.24
2023-04-12T05:16:52.433Z,5.41
2023-04-12T05:21:55.393Z,5.49
2023-04-12T05:26:58.986Z,5.68
2023-04-12T05:32:02.649Z,5.93
2023-04-12T05:37:06.101Z,6.23
2023-04-12T05:42:10.383Z,6.50
2023-04-12T05:47:13.432Z,6.73
2023-04-12T05:52:16.591Z,6.92
2023-04-12T05:57:19.793Z,7.13
2023-04-12T06:02:26.063Z,7.33
2023-04-12T06:07:30.178Z,7.43
2023-04-12T06:12:33.451Z,7.60
2023-04-12T06:17:37.839Z,7.74
2023-04-12T06:22:40.887Z,7.84
2023-04-12T06:27:44.045Z,7.96
2023-04-12T06:32:47.071Z,8.11
2023-04-12T06:37:50.419Z,8.28
2023-04-12T06:42:53.376Z,8.44
2023-04-12T06:47:57.264Z,8.46
2023-04-12T06:53:00.104Z,8.47
2023-04-12T06:58:03.067Z,8.41
2023-04-12T07:03:06.092Z,8.46
2023-04-12T07:08:09.615Z,8.60
2023-04-12T07:13:12.488Z,8.71
2023-04-12T07:18:15.528Z,8.87
2023-04-12T07:23:18.623Z,8.96
2023-04-12T07:28:21.619Z,9.05
2023-04-12T07:33:26.561Z,9.15
2023-04-12T07:38:29.686Z,9.98
2023-04-12T07:43:32.592Z,10.67
2023-04-12T07:48:35.736Z,11.38
2023-04-12T07:53:39.517Z,12.37
2023-04-12T07:58:42.706Z,12.81
2023-04-12T08:03:46.902Z,12.99
2023-04-12T08:08:50.030Z,13.45
2023-04-12T08:13:53.433Z,13.03
2023-04-12T08:18:57.300Z,12.33
2023-04-12T08:24:00.481Z,12.11
2023-04-12T08:29:03.452Z,11.78
2023-04-12T08:34:06.430Z,11.67
2023-04-12T08:39:09.582Z,12.07
2023-04-12T08:44:13.334Z,12.50
2023-04-12T08:49:16.931Z,12.80
2023-04-12T08:54:19.888Z,13.44
2023-04-12T08:59:23.104Z,14.19
2023-04-12T09:04:26.858Z,14.53
2023-04-12T09:09:46.708Z,15.50
2023-04-12T09:15:10.309Z,15.96
2023-04-12T09:20:16.001Z,16.37
2023-04-12T09:25:19.031Z,16.79
2023-04-12T09:30:21.951Z,17.04
2023-04-12T09:35:37.105Z,17.28
2023-04-12T09:40:40.420Z,17.33
2023-04-12T09:45:43.190Z,17.23
2023-04-12T09:50:46.265Z,16.81
2023-04-12T09:55:51.461Z,16.87
2023-04-12T10:00:57.123Z,16.32
2023-04-12T10:06:00.195Z,15.82
2023-04-12T10:11:03.435Z,16.00
2023-04-12T10:16:09.535Z,15.97
2023-04-12T10:21:13.223Z,16.53
2023-04-12T10:26:17.115Z,16.49
2023-04-12T10:31:30.810Z,16.57
2023-04-12T10:36:57.332Z,16.87
2023-04-12T10:42:30.709Z,17.18
2023-04-12T10:47:59.088Z,17.67
2023-04-12T10:53:12.847Z,17.62
2023-04-12T10:58:48.032Z,17.68
2023-04-12T11:04:10.022Z,18.05
2023-04-12T11:09:34.452Z,18.27
2023-04-12T11:14:49.156Z,18.14
2023-04-12T11:19:55.660Z,18.08
2023-04-12T11:25:01.099Z,18.41
2023-04-12T11:30:04.710Z,18.51
2023-04-12T11:35:08.784Z,18.77
2023-04-12T11:40:12.136Z,19.28
2023-04-12T11:45:20.208Z,19.20
2023-04-12T11:50:31.521Z,19.02
2023-04-12T11:55:34.401Z,19.28
2023-04-12T12:00:38.141Z,19.25
2023-04-12T12:05:42.877Z,19.41
2023-04-12T12:15:55.199Z,19.27
2023-04-12T12:20:58.210Z,19.41
2023-04-12T12:26:17.489Z,19.66
2023-04-12T12:31:24.007Z,19.35
2023-04-12T12:36:34.586Z,19.62
2023-04-12T12:41:38.893Z,19.83
2023-04-12T12:51:47.701Z,19.89
2023-04-12T12:56:52.752Z,20.25
2023-04-12T13:01:55.920Z,20.55
2023-04-12T13:06:58.810Z,20.34
2023-04-12T13:12:02.306Z,20.04
2023-04-12T13:17:05.849Z,20.08
2023-04-12T13:22:09.062Z,20.29
2023-04-12T13:27:15.226Z,20.13
2023-04-12T13:32:18.677Z,20.39
2023-04-12T13:37:21.692Z,20.10
2023-04-12T13:42:24.687Z,19.84
2023-04-12T13:47:28.206Z,19.53
2023-04-12T13:52:31.309Z,19.50
2023-04-12T13:57:37.286Z,19.50
2023-04-12T14:02:40.292Z,19.65
2023-04-12T14:07:43.442Z,19.62
2023-04-12T14:12:47.013Z,20.00
2023-04-12T14:17:49.954Z,20.36
2023-04-12T14:22:53.012Z,20.57
2023-04-12T14:27:55.931Z,20.77
2023-04-12T14:32:59.109Z,21.00
2023-04-12T14:38:02.598Z,20.64
2023-04-12T14:43:05.879Z,20.56
2023-04-12T14:48:09.635Z,20.83
2023-04-12T14:53:13.874Z,20.92
2023-04-12T14:58:17.313Z,20.79
2023-04-12T15:03:21.281Z,20.44
2023-04-12T15:08:24.529Z,20.31
2023-04-12T15:13:33.556Z,19.75
2023-04-12T15:18:39.482Z,19.35
2023-04-12T15:23:42.616Z,19.10
2023-04-12T15:28:46.259Z,19.34
2023-04-12T15:33:50.610Z,19.28
2023-04-12T15:38:54.431Z,19.27
2023-04-12T15:43:57.659Z,19.30
2023-04-12T15:49:01.390Z,18.79
2023-04-12T15:54:04.615Z,18.41
2023-04-12T15:59:09.247Z,18.00
2023-04-12T16:04:12.556Z,17.79
2023-04-12T16:09:16.734Z,17.54
2023-04-12T16:14:19.590Z,17.08
2023-04-12T16:19:23.512Z,16.75
2023-04-12T16:24:26.806Z,16.36
2023-04-12T16:29:31.638Z,15.93
2023-04-12T16:34:35.083Z,15.47
2023-04-12T16:39:37.975Z,15.12
2023-04-12T16:44:41.450Z,14.70
2023-04-12T16:49:44.472Z,14.34
2023-04-12T16:54:49.170Z,13.99
2023-04-12T16:59:53.464Z,13.64
2023-04-12T17:04:56.750Z,13.26
2023-04-12T17:10:00.050Z,12.90
2023-04-12T17:15:04.480Z,12.57
2023-04-12T17:20:12.921Z,12.24
2023-04-12T17:25:16.787Z,11.93
2023-04-12T17:30:21.238Z,11.52
2023-04-12T17:35:24.188Z,11.14
2023-04-12T17:40:27.316Z,10.80
2023-04-12T17:45:30.940Z,10.49
2023-04-12T17:50:33.879Z,10.17
2023-04-12T17:55:37.615Z,9.99
2023-04-12T18:00:40.754Z,9.85
2023-04-12T18:05:46.193Z,9.71
2023-04-12T18:10:49.329Z,9.48
2023-04-12T18:15:52.459Z,9.32
2023-04-12T18:20:56.081Z,9.20
2023-04-12T18:25:59.309Z,9.02
2023-04-12T18:31:04.811Z,8.91
2023-04-12T18:36:09.992Z,8.84
2023-04-12T18:41:18.286Z,8.72
2023-04-12T18:46:21.769Z,8.56
2023-04-12T18:51:24.984Z,8.46
2023-04-12T18:56:28.376Z,8.32
2023-04-12T19:01:32.130Z,8.18
2023-04-12T19:06:37.188Z,8.09
2023-04-12T19:11:40.230Z,7.96
2023-04-12T19:16:43.301Z,7.93
2023-04-12T19:21:46.529Z,7.87
2023-04-12T19:26:50.588Z,7.83
2023-04-12T19:31:53.986Z,7.75
2023-04-12T19:36:57.040Z,7.65
2023-04-12T19:42:03.505Z,7.58
2023-04-12T19:47:06.691Z,7.55
2023-04-12T19:52:11.073Z,7.46
2023-04-12T19:57:14.160Z,7.34
2023-04-12T20:02:17.255Z,7.27
2023-04-12T20:07:21.045Z,7.19
2023-04-12T20:12:24.063Z,7.12
2023-04-12T20:17:28.482Z,7.07
2023-04-12T20:22:31.823Z,7.03
2023-04-12T20:27:36.643Z,6.93
2023-04-12T20:32:39.881Z,6.84
2023-04-12T20:37:43.311Z,6.71
2023-04-12T20:42:47.258Z,6.55
2023-04-12T20:47:51.403Z,6.41
2023-04-12T20:52:56.281Z,6.30
2023-04-12T20:58:00.769Z,6.21
2023-04-12T21:03:05.237Z,6.16
2023-04-12T21:08:08.374Z,6.05
2023-04-12T21:13:12.701Z,6.00
2023-04-12T21:18:17.298Z,5.88
2023-04-12T21:23:20.373Z,5.83
2023-04-12T21:28:24.534Z,5.75
2023-04-12T21:33:27.680Z,5.76
2023-04-12T21:38:30.780Z,5.73
2023-04-12T21:43:33.870Z,5.75
2023-04-12T21:48:37.091Z,5.77
2023-04-12T21:53:40.201Z,5.80
2023-04-12T21:58:43.757Z,5.81
2023-04-12T22:03:46.965Z,5.83
2023-04-12T22:08:50.017Z,5.83
2023-04-12T22:13:53.379Z,5.78
2023-04-12T22:19:05.234Z,5.71
2023-04-12T22:24:08.388Z,5.61
2023-04-12T22:29:11.438Z,5.52
2023-04-12T22:34:14.650Z,5.46
2023-04-12T22:39:22.520Z,5.42
2023-04-12T22:44:27.158Z,5.43
2023-04-12T22:49:30.598Z,5.46
2023-04-12T22:54:34.452Z,5.48
2023-04-12T22:59:37.490Z,5.62
2023-04-12T23:04:42.550Z,5.73
2023-04-12T23:09:47.317Z,5.86
2023-04-12T23:14:50.975Z,6.00
2023-04-12T23:19:54.058Z,6.11
2023-04-12T23:24:57.362Z,6.20
2023-04-12T23:30:00.137Z,6.31
2023-04-12T23:35:03.533Z,6.43
2023-04-12T23:40:10.898Z,6.53
2023-04-12T23:45:15.145Z,6.62
2023-04-12T23:50:18.149Z,6.66
2023-04-12T23:55:21.225Z,6.70
